createdAt,value
2024-02-07T00:00:17.271Z,8.11
2024-02-07T00:04:25.231Z,8.07
2024-02-07T00:08:11.228Z,8.00
2024-02-07T00:12:00.593Z,7.98
2024-02-07T00:15:51.091Z,7.96
2024-02-07T00:19:39.034Z,8.02
2024-02-07T00:23:07.569Z,8.05
2024-02-07T00:26:50.141Z,8.07
2024-02-07T00:30:40.381Z,8.05
2024-02-07T00:34:28.778Z,8.06
2024-02-07T00:38:16.535Z,8.04
2024-02-07T00:41:59.832Z,8.01
2024-02-07T00:45:41.528Z,7.97
2024-02-07T00:49:29.404Z,8.02
2024-02-07T00:53:17.268Z,8.03
2024-02-07T00:57:05.136Z,8.01
2024-02-07T01:00:43.007Z,7.99
2024-02-07T01:04:30.887Z,7.97
2024-02-07T01:08:11.152Z,7.95
2024-02-07T01:11:51.478Z,7.92
2024-02-07T01:15:39.258Z,7.86
2024-02-07T01:19:27.309Z,7.79
2024-02-07T01:23:15.079Z,7.72
2024-02-07T01:27:02.696Z,7.68
2024-02-07T01:30:50.612Z,7.62
2024-02-07T01:34:38.449Z,7.56
2024-02-07T01:38:26.476Z,7.46
2024-02-07T01:42:20.196Z,7.36
2024-02-07T01:46:10.856Z,7.25
2024-02-07T01:49:58.625Z,7.23
2024-02-07T01:53:46.317Z,7.28
2024-02-07T01:57:27.134Z,7.29
2024-02-07T02:01:14.977Z,7.27
2024-02-07T02:05:03.157Z,7.17
2024-02-07T02:08:50.983Z,7.11
2024-02-07T02:12:38.680Z,7.00
2024-02-07T02:16:26.816Z,7.04
2024-02-07T02:19:49.457Z,7.22
2024-02-07T02:23:53.957Z,7.37
2024-02-07T02:27:44.320Z,7.49
2024-02-07T02:31:27.213Z,7.60
2024-02-07T02:35:14.879Z,7.58
2024-02-07T02:39:01.325Z,7.56
2024-02-07T02:42:30.264Z,7.59
2024-02-07T02:46:09.192Z,7.64
2024-02-07T02:49:56.905Z,7.67
2024-02-07T02:53:44.592Z,7.62
2024-02-07T02:57:10.891Z,7.56
2024-02-07T03:00:58.715Z,7.57
2024-02-07T03:04:47.490Z,7.62
2024-02-07T03:08:38.310Z,7.63
2024-02-07T03:12:25.926Z,7.59
2024-02-07T03:16:06.113Z,7.62
2024-02-07T03:19:52.307Z,7.61
2024-02-07T03:23:40.449Z,7.61
2024-02-07T03:27:28.176Z,7.63
2024-02-07T03:31:15.898Z,7.62
2024-02-07T03:35:03.662Z,7.55
2024-02-07T03:38:51.536Z,7.55
2024-02-07T03:42:39.120Z,7.54
2024-02-07T03:46:26.729Z,7.51
2024-02-07T03:50:14.406Z,7.48
2024-02-07T03:54:02.151Z,7.47
2024-02-07T03:57:49.669Z,7.49
2024-02-07T04:01:37.466Z,7.48
2024-02-07T04:05:18.413Z,7.41
2024-02-07T04:08:26.581Z,7.35
2024-02-07T04:11:54.106Z,7.29
2024-02-07T04:15:40.365Z,7.26
2024-02-07T04:19:26.612Z,7.28
2024-02-07T04:22:55.409Z,7.30
2024-02-07T04:26:22.981Z,7.31
2024-02-07T04:29:47.080Z,7.27
2024-02-07T04:33:32.926Z,7.19
2024-02-07T04:37:19.068Z,7.06
2024-02-07T04:41:05.428Z,7.00
2024-02-07T04:44:51.665Z,6.97
2024-02-07T04:48:37.718Z,6.94
2024-02-07T04:52:03.109Z,6.92
2024-02-07T04:55:49.341Z,6.86
2024-02-07T04:59:35.083Z,6.83
2024-02-07T05:03:01.315Z,6.78
2024-02-07T05:06:27.068Z,6.67
2024-02-07T05:10:13.325Z,6.69
2024-02-07T05:13:59.658Z,6.74
2024-02-07T05:17:26.628Z,6.72
2024-02-07T05:20:19.029Z,6.84
2024-02-07T05:24:08.221Z,6.93
2024-02-07T05:27:34.274Z,6.99
2024-02-07T05:31:21.909Z,7.07
2024-02-07T05:35:09.716Z,7.10
2024-02-07T05:38:58.557Z,7.12
2024-02-07T05:42:46.401Z,7.16
2024-02-07T05:46:26.904Z,7.20
2024-02-07T05:49:48.098Z,7.22
2024-02-07T05:54:04.757Z,7.31
2024-02-07T05:57:26.358Z,7.39
2024-02-07T06:05:37.924Z,7.49
2024-02-07T06:09:10.549Z,7.54
2024-02-07T06:12:37.642Z,7.57
2024-02-07T06:16:03.838Z,7.61
2024-02-07T06:19:36.573Z,7.69
2024-02-07T06:22:56.537Z,7.76
2024-02-07T06:27:31.603Z,7.85
2024-02-07T06:30:46.134Z,7.92
2024-02-07T06:34:17.935Z,8.04
2024-02-07T06:37:46.852Z,8.13
2024-02-07T06:41:15.343Z,8.21
2024-02-07T06:44:03.139Z,8.27
2024-02-07T06:47:07.741Z,8.34
2024-02-07T06:50:27.385Z,8.38
2024-02-07T06:54:06.922Z,8.41
2024-02-07T06:57:23.268Z,8.44
2024-02-07T07:01:20.782Z,8.48
2024-02-07T07:04:54.810Z,8.50
2024-02-07T07:09:30.010Z,8.50
2024-02-07T07:13:39.984Z,8.55
2024-02-07T07:27:07.932Z,8.77
2024-02-07T07:30:46.425Z,8.81
2024-02-07T07:35:54.578Z,8.93
2024-02-07T07:40:25.289Z,9.01
2024-02-07T07:49:10.426Z,9.35
2024-02-07T07:52:32.526Z,9.77
2024-02-07T08:18:55.499Z,17.67
2024-02-07T08:23:03.328Z,18.49
2024-02-07T08:26:26.305Z,18.83
2024-02-07T08:29:46.317Z,19.14
2024-02-07T08:32:34.559Z,19.53
2024-02-07T08:35:38.357Z,19.81
2024-02-07T08:38:28.297Z,19.94
2024-02-07T08:40:59.024Z,19.88
2024-02-07T08:43:54.133Z,19.92
2024-02-07T08:46:29.140Z,19.88
2024-02-07T08:49:46.668Z,19.93
2024-02-07T08:53:01.916Z,19.99
2024-02-07T08:56:24.001Z,20.18
2024-02-07T09:00:02.427Z,20.22
2024-02-07T09:03:42.988Z,20.28
2024-02-07T09:11:17.381Z,20.45
2024-02-07T09:14:26.900Z,20.40
2024-02-07T09:29:39.247Z,18.86
2024-02-07T09:32:52.609Z,18.56
2024-02-07T09:36:15.912Z,18.38
2024-02-07T09:39:18.375Z,18.32
2024-02-07T09:42:18.863Z,18.25
2024-02-07T09:45:20.480Z,18.05
2024-02-07T09:48:34.662Z,18.16
2024-02-07T09:51:45.528Z,18.15
2024-02-07T09:56:06.859Z,18.03
2024-02-07T10:00:09.882Z,17.99
2024-02-07T10:35:40.488Z,18.06
2024-02-07T10:39:23.266Z,18.04
2024-02-07T10:42:48.290Z,18.03
2024-02-07T10:46:02.361Z,17.90
2024-02-07T10:49:17.766Z,17.93
2024-02-07T10:52:56.238Z,17.80
2024-02-07T10:55:47.021Z,17.74
2024-02-07T10:58:36.524Z,17.69
2024-02-07T11:01:54.190Z,17.70
2024-02-07T11:05:40.367Z,17.53
2024-02-07T11:09:16.308Z,17.37
2024-02-07T11:13:15.717Z,17.24
2024-02-07T11:17:29.206Z,16.97
2024-02-07T11:29:10.432Z,16.71
2024-02-07T11:31:41.996Z,16.63
2024-02-07T11:34:52.882Z,16.65
2024-02-07T11:38:43.629Z,16.60
2024-02-07T11:42:24.897Z,16.52
2024-02-07T11:46:08.792Z,16.61
2024-02-07T11:49:52.859Z,16.54
2024-02-07T11:53:36.821Z,16.24
2024-02-07T11:57:22.063Z,16.28
2024-02-07T12:00:50.068Z,16.21
2024-02-07T12:04:29.537Z,15.95
2024-02-07T12:08:16.088Z,15.44
2024-02-07T12:12:14.350Z,15.12
2024-02-07T12:16:34.421Z,14.80
2024-02-07T12:33:03.072Z,13.78
2024-02-07T12:40:33.255Z,13.69
2024-02-07T12:43:25.506Z,13.54
2024-02-07T12:49:31.953Z,13.46
2024-02-07T12:50:55.601Z,13.48
2024-02-07T12:54:16.726Z,13.38
2024-02-07T12:57:43.759Z,13.40
2024-02-07T13:01:30.399Z,13.44
2024-02-07T13:05:01.954Z,13.46
2024-02-07T13:08:49.778Z,13.35
2024-02-07T13:12:58.157Z,13.30
2024-02-07T13:16:46.009Z,13.40
2024-02-07T13:20:33.923Z,13.37
2024-02-07T13:24:21.806Z,13.08
2024-02-07T13:28:09.585Z,12.93
2024-02-07T13:31:39.971Z,12.76
2024-02-07T13:35:27.725Z,12.61
2024-02-07T13:38:49.756Z,12.53
2024-02-07T13:42:37.550Z,12.45
2024-02-07T13:46:25.411Z,12.33
2024-02-07T13:50:02.298Z,12.11
2024-02-07T13:53:50.224Z,11.94
2024-02-07T13:57:30.649Z,11.80
2024-02-07T14:00:48.696Z,11.68
2024-02-07T14:04:08.180Z,11.54
2024-02-07T14:07:39.839Z,11.45
2024-02-07T14:11:45.716Z,11.28
2024-02-07T14:15:25.744Z,11.09
2024-02-07T14:19:19.557Z,10.94
2024-02-07T14:23:07.829Z,10.83
2024-02-07T14:26:55.730Z,10.70
2024-02-07T14:30:24.953Z,10.64
2024-02-07T14:34:16.522Z,10.55
2024-02-07T14:38:11.398Z,10.52
2024-02-07T14:41:51.938Z,10.49
2024-02-07T14:45:40.048Z,10.45
2024-02-07T14:49:05.833Z,10.41
2024-02-07T14:52:37.970Z,10.39
2024-02-07T14:56:26.660Z,10.34
2024-02-07T15:00:14.419Z,10.32
2024-02-07T15:04:02.233Z,10.29
2024-02-07T15:07:50.002Z,10.27
2024-02-07T15:11:37.773Z,10.25
2024-02-07T15:15:25.489Z,10.21
2024-02-07T15:19:13.191Z,10.18
2024-02-07T15:23:00.835Z,10.11
2024-02-07T15:26:48.448Z,10.02
2024-02-07T15:30:36.188Z,9.98
2024-02-07T15:34:13.680Z,9.91
2024-02-07T15:38:01.360Z,9.83
2024-02-07T15:41:49.420Z,9.76
2024-02-07T15:45:38.475Z,9.67
2024-02-07T15:49:27.419Z,9.59
2024-02-07T15:53:14.992Z,9.51
2024-02-07T15:57:02.575Z,9.43
2024-02-07T16:00:40.617Z,9.36
2024-02-07T16:04:28.454Z,9.27
2024-02-07T16:08:16.234Z,9.18
2024-02-07T16:12:03.912Z,9.10
2024-02-07T16:15:51.520Z,9.03
2024-02-07T16:19:39.388Z,8.94
2024-02-07T16:23:27.040Z,8.84
2024-02-07T16:27:14.618Z,8.75
2024-02-07T16:30:45.323Z,8.73
2024-02-07T16:33:55.904Z,8.70
2024-02-07T16:37:23.692Z,8.68
2024-02-07T16:41:10.174Z,8.63
2024-02-07T16:44:58.155Z,8.53
2024-02-07T16:48:46.221Z,8.40
2024-02-07T16:52:34.067Z,8.33
2024-02-07T16:56:21.721Z,8.19
2024-02-07T17:00:09.514Z,8.04
2024-02-07T17:03:57.281Z,7.91
2024-02-07T17:07:45.202Z,7.82
2024-02-07T17:11:32.838Z,7.69
2024-02-07T17:15:20.929Z,7.55
2024-02-07T17:19:08.957Z,7.49
2024-02-07T17:22:56.720Z,7.40
2024-02-07T17:26:44.511Z,7.25
2024-02-07T17:30:36.614Z,7.10
2024-02-07T17:34:25.574Z,7.03
2024-02-07T17:38:13.286Z,6.96
2024-02-07T17:42:01.108Z,6.93
2024-02-07T17:45:49.104Z,6.97
2024-02-07T17:49:36.976Z,7.08
2024-02-07T17:53:25.780Z,7.21
2024-02-07T17:57:13.516Z,7.33
2024-02-07T18:01:01.409Z,7.36
2024-02-07T18:04:49.236Z,7.29
2024-02-07T18:08:37.021Z,7.30
2024-02-07T18:12:24.842Z,7.33
2024-02-07T18:16:12.541Z,7.32
2024-02-07T18:20:03.559Z,7.32
2024-02-07T18:23:52.500Z,7.37
2024-02-07T18:27:01.324Z,7.48
2024-02-07T18:30:28.865Z,7.57
2024-02-07T18:34:16.586Z,7.70
2024-02-07T18:38:04.494Z,7.80
2024-02-07T18:41:52.176Z,7.84
2024-02-07T18:45:39.975Z,7.80
2024-02-07T18:49:18.074Z,7.83
2024-02-07T18:53:05.968Z,7.87
2024-02-07T18:56:54.180Z,7.88
2024-02-07T19:00:42.627Z,7.87
2024-02-07T19:04:30.618Z,7.83
2024-02-07T19:08:18.533Z,7.78
2024-02-07T19:12:06.380Z,7.72
2024-02-07T19:15:53.994Z,7.68
2024-02-07T19:19:41.874Z,7.65
2024-02-07T19:23:29.850Z,7.61
2024-02-07T19:27:17.652Z,7.57
2024-02-07T19:31:05.445Z,7.59
2024-02-07T19:34:53.327Z,7.67
2024-02-07T19:38:41.000Z,7.69
2024-02-07T19:42:28.848Z,7.65
2024-02-07T19:46:16.365Z,7.58
2024-02-07T19:50:03.853Z,7.51
2024-02-07T19:53:51.683Z,7.41
2024-02-07T19:57:39.300Z,7.38
2024-02-07T20:00:53.393Z,7.36
2024-02-07T20:04:41.338Z,7.30
2024-02-07T20:08:22.039Z,7.32
2024-02-07T20:12:09.726Z,7.38
2024-02-07T20:15:57.422Z,7.42
2024-02-07T20:19:45.075Z,7.44
2024-02-07T20:23:32.742Z,7.41
2024-02-07T20:27:20.461Z,7.42
2024-02-07T20:31:08.254Z,7.41
2024-02-07T20:34:15.861Z,7.35
2024-02-07T20:38:03.686Z,7.40
2024-02-07T20:41:51.556Z,7.44
2024-02-07T20:45:39.163Z,7.39
2024-02-07T20:49:27.117Z,7.38
2024-02-07T20:53:14.856Z,7.39
2024-02-07T20:57:02.661Z,7.40
2024-02-07T21:00:50.723Z,7.37
2024-02-07T21:04:38.688Z,7.34
2024-02-07T21:08:26.571Z,7.33
2024-02-07T21:12:14.473Z,7.28
2024-02-07T21:16:02.127Z,7.24
2024-02-07T21:19:49.845Z,7.21
2024-02-07T21:23:37.606Z,7.17
2024-02-07T21:27:18.236Z,7.09
2024-02-07T21:30:58.734Z,7.05
2024-02-07T21:34:36.565Z,7.05
2024-02-07T21:38:24.524Z,7.01
2024-02-07T21:42:01.680Z,6.95
2024-02-07T21:45:49.461Z,6.92
2024-02-07T21:49:37.268Z,6.86
2024-02-07T21:53:26.126Z,6.85
2024-02-07T21:57:13.698Z,6.92
2024-02-07T22:01:01.608Z,7.14
2024-02-07T22:04:49.610Z,7.21
2024-02-07T22:08:37.666Z,7.23
2024-02-07T22:12:25.560Z,7.19
2024-02-07T22:16:13.589Z,7.17
2024-02-07T22:20:01.343Z,7.19
2024-02-07T22:23:49.440Z,7.33
2024-02-07T22:27:37.266Z,7.40
2024-02-07T22:31:04.900Z,7.38
2024-02-07T22:34:52.838Z,7.32
2024-02-07T22:38:33.184Z,7.29
2024-02-07T22:42:20.869Z,7.21
2024-02-07T22:46:08.894Z,7.19
2024-02-07T22:49:56.597Z,7.22
2024-02-07T22:53:44.427Z,7.33
2024-02-07T22:57:32.412Z,7.34
2024-02-07T23:01:20.130Z,7.47
2024-02-07T23:04:50.164Z,7.62
2024-02-07T23:08:37.799Z,7.76
2024-02-07T23:12:15.233Z,7.92
2024-02-07T23:15:50.352Z,8.13
2024-02-07T23:19:38.097Z,8.22
2024-02-07T23:23:25.777Z,8.29
2024-02-07T23:27:13.413Z,8.36
2024-02-07T23:31:01.030Z,8.47
2024-02-07T23:34:48.694Z,8.48
2024-02-07T23:38:36.360Z,8.46
2024-02-07T23:42:24.066Z,8.47
2024-02-07T23:46:11.787Z,8.47
2024-02-07T23:49:48.071Z,8.46
2024-02-07T23:53:35.723Z,8.45
2024-02-07T23:57:16.053Z,8.42
